MMCE

Details ICAO MMCE (CME)
Name CIUDAD DEL CARMEN INTL
Region Mexico
Timezone America/Merida (UTC-5.0)
Plans Departing 25
Arriving 12
Stats Elevation 10 ft / 3 m (AMSL)
Location 18.651870° -91.799481°
Runways 1
Magnetic Variation 1.178° E
Sunrise 2018-05-24 11:32:14 UTC / 2018-05-24 06:32:14 Local
Sunset 2018-05-25 00:38:46 UTC / 2018-05-24 19:38:46 Local
Advertisement - Login to hide

Runways

ID Width Length Bearing (true) Bearing (mag) Surface Threshold Offset Overrun Length
13 148 ft / 45 m 7,256 ft / 2,212 m 139.90° 138.72° Asphalt 0 ft / 0 m 190 ft / 58 m
31 148 ft / 45 m 7,256 ft / 2,212 m 319.91° 318.73° Asphalt 0 ft / 0 m 200 ft / 61 m

Map

Weather


0- 5 10 15 20 25 30 35+ Temperature / ° C

Clouds and Precipitation
Forecast for 2018-05-24 18:00 UTC. Updated 4 hours ago

Ground ~20,000 ft ~40,000 ft Winds

METAR

MMCE 242044Z 30005KT 7SM SCT015 BKN070 30/24 A2987 RMK SLP115 57016 907 8/130

TAF

TAF MMCE 241713Z 2418/2518 30015KT P6SM SCT020 TEMPO 2421/2501 BKN020 BECMG 2506/2507 34010KT P6SM SCT015 SCT080 FM251600 03010KT P6SM BKN015

Frequencies

Tower 118.40 MHz CARMEN TWR
Warning: Do not use this data for real-world aviation or navigation. No guarantee of current accuracy is given.